sensor_id;sensor_type;location;lat;lon;timestamp;P1;durP1;ratioP1;P2;durP2;ratioP2
71734;SDS011;59577;52.122;5.406;2023-08-12T00:00:05;4.25;;;2.22;;
71734;SDS011;59577;52.122;5.406;2023-08-12T00:02:39;2.65;;;2.13;;
71734;SDS011;59577;52.122;5.406;2023-08-12T00:05:07;5.00;;;2.30;;
71734;SDS011;59577;52.122;5.406;2023-08-12T00:07:34;5.90;;;2.50;;
71734;SDS011;59577;52.122;5.406;2023-08-12T00:10:01;8.38;;;2.72;;
71734;SDS011;59577;52.122;5.406;2023-08-12T00:12:31;7.18;;;3.10;;
71734;SDS011;59577;52.122;5.406;2023-08-12T00:14:58;3.30;;;2.90;;
71734;SDS011;59577;52.122;5.406;2023-08-12T00:17:25;3.88;;;2.90;;
71734;SDS011;59577;52.122;5.406;2023-08-12T00:19:53;3.77;;;3.20;;
71734;SDS011;59577;52.122;5.406;2023-08-12T00:22:19;8.00;;;3.53;;
71734;SDS011;59577;52.122;5.406;2023-08-12T00:24:46;6.25;;;3.03;;
71734;SDS011;59577;52.122;5.406;2023-08-12T00:27:13;5.13;;;2.92;;
71734;SDS011;59577;52.122;5.406;2023-08-12T00:29:39;5.03;;;3.17;;
71734;SDS011;59577;52.122;5.406;2023-08-12T00:32:08;4.87;;;3.30;;
71734;SDS011;59577;52.122;5.406;2023-08-12T00:34:35;6.70;;;3.83;;
71734;SDS011;59577;52.122;5.406;2023-08-12T00:37:02;4.55;;;3.42;;
71734;SDS011;59577;52.122;5.406;2023-08-12T00:39:29;6.00;;;3.38;;
71734;SDS011;59577;52.122;5.406;2023-08-12T00:41:55;6.32;;;3.72;;
71734;SDS011;59577;52.122;5.406;2023-08-12T00:44:22;5.50;;;2.83;;
71734;SDS011;59577;52.122;5.406;2023-08-12T00:46:48;5.95;;;3.70;;
71734;SDS011;59577;52.122;5.406;2023-08-12T00:49:16;6.07;;;3.35;;
71734;SDS011;59577;52.122;5.406;2023-08-12T00:51:43;5.65;;;3.10;;
71734;SDS011;59577;52.122;5.406;2023-08-12T00:54:13;5.28;;;2.70;;
71734;SDS011;59577;52.122;5.406;2023-08-12T00:56:41;9.37;;;3.43;;
71734;SDS011;59577;52.122;5.406;2023-08-12T00:59:08;4.38;;;2.97;;
71734;SDS011;59577;52.122;5.406;2023-08-12T01:01:38;5.60;;;3.30;;
71734;SDS011;59577;52.122;5.406;2023-08-12T01:04:07;6.55;;;3.05;;
71734;SDS011;59577;52.122;5.406;2023-08-12T01:06:34;4.40;;;3.30;;
71734;SDS011;59577;52.122;5.406;2023-08-12T01:09:01;7.53;;;3.27;;
71734;SDS011;59577;52.122;5.406;2023-08-12T01:11:42;7.78;;;3.58;;
71734;SDS011;59577;52.122;5.406;2023-08-12T01:17:09;5.07;;;3.00;;
71734;SDS011;59577;52.122;5.406;2023-08-12T01:19:40;5.03;;;4.00;;
71734;SDS011;59577;52.122;5.406;2023-08-12T01:22:10;9.00;;;4.07;;
71734;SDS011;59577;52.122;5.406;2023-08-12T01:24:40;7.20;;;3.65;;
71734;SDS011;59577;52.122;5.406;2023-08-12T01:27:09;9.13;;;3.58;;
71734;SDS011;59577;52.122;5.406;2023-08-12T01:29:47;9.00;;;4.53;;
71734;SDS011;59577;52.122;5.406;2023-08-12T01:32:28;5.13;;;3.50;;
71734;SDS011;59577;52.122;5.406;2023-08-12T01:35:19;7.47;;;4.80;;
71734;SDS011;59577;52.122;5.406;2023-08-12T01:37:50;7.80;;;5.00;;
71734;SDS011;59577;52.122;5.406;2023-08-12T01:40:18;9.25;;;4.40;;
71734;SDS011;59577;52.122;5.406;2023-08-12T01:42:46;8.90;;;5.05;;
71734;SDS011;59577;52.122;5.406;2023-08-12T01:45:14;9.65;;;5.25;;
71734;SDS011;59577;52.122;5.406;2023-08-12T01:47:44;6.80;;;3.97;;
71734;SDS011;59577;52.122;5.406;2023-08-12T01:50:10;8.88;;;4.60;;
71734;SDS011;59577;52.122;5.406;2023-08-12T01:52:37;7.60;;;3.90;;
71734;SDS011;59577;52.122;5.406;2023-08-12T01:55:04;6.53;;;3.55;;
71734;SDS011;59577;52.122;5.406;2023-08-12T01:57:32;6.35;;;3.63;;
71734;SDS011;59577;52.122;5.406;2023-08-12T02:00:00;6.30;;;3.97;;
71734;SDS011;59577;52.122;5.406;2023-08-12T02:02:27;6.13;;;3.95;;
71734;SDS011;59577;52.122;5.406;2023-08-12T02:04:54;8.45;;;3.95;;
71734;SDS011;59577;52.122;5.406;2023-08-12T02:07:20;6.57;;;3.30;;
71734;SDS011;59577;52.122;5.406;2023-08-12T02:09:47;8.23;;;4.63;;
71734;SDS011;59577;52.122;5.406;2023-08-12T02:12:14;6.70;;;4.93;;
71734;SDS011;59577;52.122;5.406;2023-08-12T02:14:40;10.60;;;5.10;;
71734;SDS011;59577;52.122;5.406;2023-08-12T02:17:07;5.97;;;4.38;;
71734;SDS011;59577;52.122;5.406;2023-08-12T02:19:34;12.65;;;5.13;;
71734;SDS011;59577;52.122;5.406;2023-08-12T02:22:01;7.82;;;5.10;;
71734;SDS011;59577;52.122;5.406;2023-08-12T02:24:29;9.10;;;5.17;;
71734;SDS011;59577;52.122;5.406;2023-08-12T02:26:56;7.38;;;5.10;;
71734;SDS011;59577;52.122;5.406;2023-08-12T02:29:22;6.88;;;4.95;;
71734;SDS011;59577;52.122;5.406;2023-08-12T02:31:49;9.40;;;5.45;;
71734;SDS011;59577;52.122;5.406;2023-08-12T02:34:16;10.48;;;5.05;;
71734;SDS011;59577;52.122;5.406;2023-08-12T02:36:42;9.10;;;4.83;;
71734;SDS011;59577;52.122;5.406;2023-08-12T02:39:09;7.93;;;4.97;;
71734;SDS011;59577;52.122;5.406;2023-08-12T02:41:36;8.70;;;5.05;;
71734;SDS011;59577;52.122;5.406;2023-08-12T02:44:02;7.50;;;4.55;;
71734;SDS011;59577;52.122;5.406;2023-08-12T02:46:29;6.93;;;4.55;;
71734;SDS011;59577;52.122;5.406;2023-08-12T02:48:56;6.20;;;3.93;;
71734;SDS011;59577;52.122;5.406;2023-08-12T02:51:22;5.72;;;4.53;;
71734;SDS011;59577;52.122;5.406;2023-08-12T02:53:49;8.45;;;5.25;;
71734;SDS011;59577;52.122;5.406;2023-08-12T02:56:15;8.70;;;5.30;;
71734;SDS011;59577;52.122;5.406;2023-08-12T02:58:42;8.80;;;5.30;;
71734;SDS011;59577;52.122;5.406;2023-08-12T03:01:08;8.90;;;5.33;;
71734;SDS011;59577;52.122;5.406;2023-08-12T03:03:35;8.48;;;5.60;;
71734;SDS011;59577;52.122;5.406;2023-08-12T03:06:02;10.60;;;6.28;;
71734;SDS011;59577;52.122;5.406;2023-08-12T03:08:29;11.82;;;6.07;;
71734;SDS011;59577;52.122;5.406;2023-08-12T03:11:02;8.43;;;5.78;;
71734;SDS011;59577;52.122;5.406;2023-08-12T03:13:29;9.93;;;6.63;;
71734;SDS011;59577;52.122;5.406;2023-08-12T03:15:56;14.50;;;6.35;;
71734;SDS011;59577;52.122;5.406;2023-08-12T03:18:23;9.18;;;6.00;;
71734;SDS011;59577;52.122;5.406;2023-08-12T03:20:49;11.05;;;5.70;;
71734;SDS011;59577;52.122;5.406;2023-08-12T03:23:16;10.88;;;6.70;;
71734;SDS011;59577;52.122;5.406;2023-08-12T03:25:43;10.53;;;6.23;;
71734;SDS011;59577;52.122;5.406;2023-08-12T03:28:09;14.45;;;7.03;;
71734;SDS011;59577;52.122;5.406;2023-08-12T03:30:36;10.95;;;6.88;;
71734;SDS011;59577;52.122;5.406;2023-08-12T03:33:03;13.85;;;7.47;;
71734;SDS011;59577;52.122;5.406;2023-08-12T03:35:30;12.25;;;6.72;;
71734;SDS011;59577;52.122;5.406;2023-08-12T03:37:57;13.80;;;7.33;;
71734;SDS011;59577;52.122;5.406;2023-08-12T03:40:23;12.25;;;7.57;;
71734;SDS011;59577;52.122;5.406;2023-08-12T03:42:50;11.60;;;7.35;;
71734;SDS011;59577;52.122;5.406;2023-08-12T03:45:16;13.55;;;7.40;;
71734;SDS011;59577;52.122;5.406;2023-08-12T03:47:43;12.32;;;7.10;;
71734;SDS011;59577;52.122;5.406;2023-08-12T03:50:10;13.70;;;7.50;;
71734;SDS011;59577;52.122;5.406;2023-08-12T03:52:36;12.65;;;7.72;;
71734;SDS011;59577;52.122;5.406;2023-08-12T03:55:03;11.77;;;7.72;;
71734;SDS011;59577;52.122;5.406;2023-08-12T03:57:30;14.60;;;7.78;;
71734;SDS011;59577;52.122;5.406;2023-08-12T03:59:57;13.07;;;8.07;;
71734;SDS011;59577;52.122;5.406;2023-08-12T04:02:24;11.60;;;7.10;;
71734;SDS011;59577;52.122;5.406;2023-08-12T04:04:50;11.35;;;7.35;;
71734;SDS011;59577;52.122;5.406;2023-08-12T04:07:17;11.25;;;7.25;;
71734;SDS011;59577;52.122;5.406;2023-08-12T04:09:43;13.05;;;7.15;;
71734;SDS011;59577;52.122;5.406;2023-08-12T04:12:10;12.75;;;7.90;;
71734;SDS011;59577;52.122;5.406;2023-08-12T04:14:44;20.50;;;8.77;;
71734;SDS011;59577;52.122;5.406;2023-08-12T04:17:10;14.10;;;8.48;;
71734;SDS011;59577;52.122;5.406;2023-08-12T04:19:37;17.08;;;8.52;;
71734;SDS011;59577;52.122;5.406;2023-08-12T04:22:05;13.23;;;7.70;;
71734;SDS011;59577;52.122;5.406;2023-08-12T04:24:31;15.43;;;8.52;;
71734;SDS011;59577;52.122;5.406;2023-08-12T04:26:58;12.53;;;8.63;;
71734;SDS011;59577;52.122;5.406;2023-08-12T04:29:25;13.57;;;8.55;;
71734;SDS011;59577;52.122;5.406;2023-08-12T04:31:59;14.55;;;9.25;;
71734;SDS011;59577;52.122;5.406;2023-08-12T04:34:26;17.10;;;9.27;;
71734;SDS011;59577;52.122;5.406;2023-08-12T04:36:52;16.02;;;9.10;;
71734;SDS011;59577;52.122;5.406;2023-08-12T04:39:19;15.93;;;9.40;;
71734;SDS011;59577;52.122;5.406;2023-08-12T04:41:45;18.40;;;10.20;;
71734;SDS011;59577;52.122;5.406;2023-08-12T04:44:12;16.10;;;9.63;;
71734;SDS011;59577;52.122;5.406;2023-08-12T04:46:39;15.95;;;9.80;;
71734;SDS011;59577;52.122;5.406;2023-08-12T04:49:06;13.60;;;9.55;;
71734;SDS011;59577;52.122;5.406;2023-08-12T04:51:33;17.57;;;9.97;;
71734;SDS011;59577;52.122;5.406;2023-08-12T04:54:00;18.17;;;10.63;;
71734;SDS011;59577;52.122;5.406;2023-08-12T04:56:28;13.18;;;9.43;;
71734;SDS011;59577;52.122;5.406;2023-08-12T04:58:55;17.70;;;9.70;;
71734;SDS011;59577;52.122;5.406;2023-08-12T05:01:22;14.70;;;9.27;;
71734;SDS011;59577;52.122;5.406;2023-08-12T05:03:48;17.60;;;9.67;;
71734;SDS011;59577;52.122;5.406;2023-08-12T05:06:15;11.38;;;8.75;;
71734;SDS011;59577;52.122;5.406;2023-08-12T05:08:41;12.50;;;8.25;;
71734;SDS011;59577;52.122;5.406;2023-08-12T05:11:08;10.90;;;8.23;;
71734;SDS011;59577;52.122;5.406;2023-08-12T05:13:34;12.07;;;8.32;;
71734;SDS011;59577;52.122;5.406;2023-08-12T05:16:01;14.27;;;8.17;;
71734;SDS011;59577;52.122;5.406;2023-08-12T05:18:28;12.27;;;7.97;;
71734;SDS011;59577;52.122;5.406;2023-08-12T05:20:56;13.48;;;7.90;;
71734;SDS011;59577;52.122;5.406;2023-08-12T05:23:23;12.80;;;8.65;;
71734;SDS011;59577;52.122;5.406;2023-08-12T05:25:54;14.32;;;7.55;;
71734;SDS011;59577;52.122;5.406;2023-08-12T05:28:21;16.73;;;8.07;;
71734;SDS011;59577;52.122;5.406;2023-08-12T05:31:02;9.93;;;7.38;;
71734;SDS011;59577;52.122;5.406;2023-08-12T05:33:29;14.80;;;7.93;;
71734;SDS011;59577;52.122;5.406;2023-08-12T05:35:55;16.40;;;7.82;;
71734;SDS011;59577;52.122;5.406;2023-08-12T05:38:22;12.35;;;7.05;;
71734;SDS011;59577;52.122;5.406;2023-08-12T05:40:48;15.00;;;6.90;;
71734;SDS011;59577;52.122;5.406;2023-08-12T05:43:15;13.75;;;7.80;;
71734;SDS011;59577;52.122;5.406;2023-08-12T05:45:41;12.60;;;8.10;;
71734;SDS011;59577;52.122;5.406;2023-08-12T05:48:08;12.73;;;8.20;;
71734;SDS011;59577;52.122;5.406;2023-08-12T05:50:35;10.50;;;7.53;;
71734;SDS011;59577;52.122;5.406;2023-08-12T05:53:02;11.83;;;7.70;;
71734;SDS011;59577;52.122;5.406;2023-08-12T05:55:29;14.48;;;8.25;;
71734;SDS011;59577;52.122;5.406;2023-08-12T05:57:55;14.60;;;8.07;;
71734;SDS011;59577;52.122;5.406;2023-08-12T06:00:22;15.07;;;7.85;;
71734;SDS011;59577;52.122;5.406;2023-08-12T06:02:48;11.43;;;7.75;;
71734;SDS011;59577;52.122;5.406;2023-08-12T06:05:18;13.27;;;8.00;;
71734;SDS011;59577;52.122;5.406;2023-08-12T06:07:45;12.32;;;7.57;;
71734;SDS011;59577;52.122;5.406;2023-08-12T06:10:11;13.45;;;8.45;;
71734;SDS011;59577;52.122;5.406;2023-08-12T06:12:38;11.98;;;7.38;;
71734;SDS011;59577;52.122;5.406;2023-08-12T06:15:05;10.38;;;7.78;;
71734;SDS011;59577;52.122;5.406;2023-08-12T06:17:31;11.53;;;8.53;;
71734;SDS011;59577;52.122;5.406;2023-08-12T06:19:58;9.90;;;7.55;;
71734;SDS011;59577;52.122;5.406;2023-08-12T06:22:25;9.98;;;7.47;;
71734;SDS011;59577;52.122;5.406;2023-08-12T06:24:51;12.13;;;8.18;;
71734;SDS011;59577;52.122;5.406;2023-08-12T06:27:18;11.05;;;7.40;;
71734;SDS011;59577;52.122;5.406;2023-08-12T06:29:46;7.93;;;6.87;;
71734;SDS011;59577;52.122;5.406;2023-08-12T06:32:13;12.23;;;7.57;;
71734;SDS011;59577;52.122;5.406;2023-08-12T06:34:41;7.90;;;6.53;;
71734;SDS011;59577;52.122;5.406;2023-08-12T06:37:19;9.93;;;6.18;;
71734;SDS011;59577;52.122;5.406;2023-08-12T06:39:47;12.02;;;6.45;;
71734;SDS011;59577;52.122;5.406;2023-08-12T06:42:13;7.63;;;5.13;;
71734;SDS011;59577;52.122;5.406;2023-08-12T06:44:40;6.32;;;4.20;;
71734;SDS011;59577;52.122;5.406;2023-08-12T06:47:06;4.90;;;4.40;;
71734;SDS011;59577;52.122;5.406;2023-08-12T06:49:33;8.68;;;4.22;;
71734;SDS011;59577;52.122;5.406;2023-08-12T06:52:00;7.40;;;4.28;;
71734;SDS011;59577;52.122;5.406;2023-08-12T06:54:26;6.10;;;4.60;;
71734;SDS011;59577;52.122;5.406;2023-08-12T06:56:53;4.40;;;3.78;;
71734;SDS011;59577;52.122;5.406;2023-08-12T06:59:20;8.05;;;3.58;;
71734;SDS011;59577;52.122;5.406;2023-08-12T07:01:46;8.88;;;4.15;;
71734;SDS011;59577;52.122;5.406;2023-08-12T07:04:13;4.60;;;3.53;;
71734;SDS011;59577;52.122;5.406;2023-08-12T07:06:39;4.07;;;3.10;;
71734;SDS011;59577;52.122;5.406;2023-08-12T07:09:06;3.95;;;3.55;;
71734;SDS011;59577;52.122;5.406;2023-08-12T07:11:32;5.97;;;3.42;;
71734;SDS011;59577;52.122;5.406;2023-08-12T07:13:59;3.63;;;3.33;;
71734;SDS011;59577;52.122;5.406;2023-08-12T07:16:26;5.25;;;2.70;;
71734;SDS011;59577;52.122;5.406;2023-08-12T07:18:52;2.77;;;2.50;;
71734;SDS011;59577;52.122;5.406;2023-08-12T07:21:19;3.78;;;2.30;;
71734;SDS011;59577;52.122;5.406;2023-08-12T07:23:45;2.83;;;2.25;;
71734;SDS011;59577;52.122;5.406;2023-08-12T07:26:28;4.70;;;2.45;;
71734;SDS011;59577;52.122;5.406;2023-08-12T07:28:56;4.10;;;2.22;;
71734;SDS011;59577;52.122;5.406;2023-08-12T07:31:22;3.47;;;2.53;;
71734;SDS011;59577;52.122;5.406;2023-08-12T07:33:49;3.85;;;2.80;;
71734;SDS011;59577;52.122;5.406;2023-08-12T07:36:16;3.67;;;2.78;;
71734;SDS011;59577;52.122;5.406;2023-08-12T07:38:42;3.20;;;2.67;;
71734;SDS011;59577;52.122;5.406;2023-08-12T07:41:09;4.80;;;3.30;;
71734;SDS011;59577;52.122;5.406;2023-08-12T07:43:35;5.60;;;3.27;;
71734;SDS011;59577;52.122;5.406;2023-08-12T07:46:02;3.78;;;2.70;;
71734;SDS011;59577;52.122;5.406;2023-08-12T07:48:35;3.95;;;2.92;;
71734;SDS011;59577;52.122;5.406;2023-08-12T07:51:02;4.60;;;2.83;;
71734;SDS011;59577;52.122;5.406;2023-08-12T07:53:28;3.53;;;2.60;;
71734;SDS011;59577;52.122;5.406;2023-08-12T07:55:55;3.53;;;2.10;;
71734;SDS011;59577;52.122;5.406;2023-08-12T07:58:22;3.88;;;2.70;;
71734;SDS011;59577;52.122;5.406;2023-08-12T08:00:51;2.28;;;2.08;;
71734;SDS011;59577;52.122;5.406;2023-08-12T08:03:20;4.05;;;2.10;;
71734;SDS011;59577;52.122;5.406;2023-08-12T08:05:46;4.10;;;2.15;;
71734;SDS011;59577;52.122;5.406;2023-08-12T08:08:13;3.93;;;2.30;;
71734;SDS011;59577;52.122;5.406;2023-08-12T08:10:40;5.28;;;2.50;;
71734;SDS011;59577;52.122;5.406;2023-08-12T08:13:06;3.83;;;1.90;;
71734;SDS011;59577;52.122;5.406;2023-08-12T08:15:33;3.45;;;1.88;;
71734;SDS011;59577;52.122;5.406;2023-08-12T08:17:59;2.17;;;1.80;;
71734;SDS011;59577;52.122;5.406;2023-08-12T08:20:30;2.83;;;1.83;;
71734;SDS011;59577;52.122;5.406;2023-08-12T08:22:56;2.22;;;1.20;;
71734;SDS011;59577;52.122;5.406;2023-08-12T08:25:23;1.77;;;1.50;;
71734;SDS011;59577;52.122;5.406;2023-08-12T08:27:51;3.60;;;1.60;;
71734;SDS011;59577;52.122;5.406;2023-08-12T08:30:17;2.08;;;1.42;;
71734;SDS011;59577;52.122;5.406;2023-08-12T08:32:44;3.73;;;1.50;;
71734;SDS011;59577;52.122;5.406;2023-08-12T08:35:13;3.30;;;1.60;;
71734;SDS011;59577;52.122;5.406;2023-08-12T08:37:40;1.70;;;1.50;;
71734;SDS011;59577;52.122;5.406;2023-08-12T08:40:07;2.55;;;1.23;;
71734;SDS011;59577;52.122;5.406;2023-08-12T08:42:34;1.40;;;0.82;;
71734;SDS011;59577;52.122;5.406;2023-08-12T08:45:03;1.30;;;1.17;;
71734;SDS011;59577;52.122;5.406;2023-08-12T08:47:37;0.82;;;0.82;;
71734;SDS011;59577;52.122;5.406;2023-08-12T08:50:04;1.27;;;0.88;;
71734;SDS011;59577;52.122;5.406;2023-08-12T08:52:31;0.80;;;0.50;;
71734;SDS011;59577;52.122;5.406;2023-08-12T08:54:59;0.80;;;0.43;;
71734;SDS011;59577;52.122;5.406;2023-08-12T08:57:32;0.57;;;0.30;;
71734;SDS011;59577;52.122;5.406;2023-08-12T09:00:12;0.50;;;0.30;;
71734;SDS011;59577;52.122;5.406;2023-08-12T09:02:44;0.70;;;0.40;;
71734;SDS011;59577;52.122;5.406;2023-08-12T09:05:13;1.58;;;0.60;;
71734;SDS011;59577;52.122;5.406;2023-08-12T09:07:42;4.78;;;0.35;;
71734;SDS011;59577;52.122;5.406;2023-08-12T09:10:10;1.10;;;0.40;;
71734;SDS011;59577;52.122;5.406;2023-08-12T09:12:40;1.63;;;0.50;;
71734;SDS011;59577;52.122;5.406;2023-08-12T09:15:08;0.80;;;0.32;;
71734;SDS011;59577;52.122;5.406;2023-08-12T09:17:35;2.33;;;0.40;;
71734;SDS011;59577;52.122;5.406;2023-08-12T09:20:02;1.00;;;0.47;;
71734;SDS011;59577;52.122;5.406;2023-08-12T09:22:34;1.40;;;0.30;;
71734;SDS011;59577;52.122;5.406;2023-08-12T09:25:01;0.98;;;0.40;;
71734;SDS011;59577;52.122;5.406;2023-08-12T09:27:30;0.75;;;0.40;;
71734;SDS011;59577;52.122;5.406;2023-08-12T09:29:58;1.40;;;0.38;;
71734;SDS011;59577;52.122;5.406;2023-08-12T09:32:24;2.30;;;0.50;;
71734;SDS011;59577;52.122;5.406;2023-08-12T09:34:52;1.63;;;0.40;;
71734;SDS011;59577;52.122;5.406;2023-08-12T09:37:21;2.58;;;0.60;;
71734;SDS011;59577;52.122;5.406;2023-08-12T09:39:50;3.28;;;0.60;;
71734;SDS011;59577;52.122;5.406;2023-08-12T09:42:18;3.15;;;0.70;;
71734;SDS011;59577;52.122;5.406;2023-08-12T09:44:45;2.25;;;0.40;;
71734;SDS011;59577;52.122;5.406;2023-08-12T09:47:12;3.83;;;0.53;;
71734;SDS011;59577;52.122;5.406;2023-08-12T09:49:39;2.40;;;0.55;;
71734;SDS011;59577;52.122;5.406;2023-08-12T09:52:07;2.05;;;0.63;;
71734;SDS011;59577;52.122;5.406;2023-08-12T09:54:34;2.80;;;0.75;;
71734;SDS011;59577;52.122;5.406;2023-08-12T09:57:02;1.85;;;0.70;;
71734;SDS011;59577;52.122;5.406;2023-08-12T09:59:34;2.80;;;0.60;;
71734;SDS011;59577;52.122;5.406;2023-08-12T10:02:02;1.77;;;0.60;;
71734;SDS011;59577;52.122;5.406;2023-08-12T10:04:44;2.17;;;0.55;;
71734;SDS011;59577;52.122;5.406;2023-08-12T10:07:12;4.78;;;0.75;;
71734;SDS011;59577;52.122;5.406;2023-08-12T10:09:42;2.75;;;0.50;;
71734;SDS011;59577;52.122;5.406;2023-08-12T10:12:09;4.77;;;0.80;;
71734;SDS011;59577;52.122;5.406;2023-08-12T10:14:40;2.28;;;0.60;;
71734;SDS011;59577;52.122;5.406;2023-08-12T10:17:07;2.63;;;0.80;;
71734;SDS011;59577;52.122;5.406;2023-08-12T10:19:35;3.67;;;0.50;;
71734;SDS011;59577;52.122;5.406;2023-08-12T10:22:03;5.07;;;0.90;;
71734;SDS011;59577;52.122;5.406;2023-08-12T10:24:30;3.60;;;0.60;;
71734;SDS011;59577;52.122;5.406;2023-08-12T10:27:09;3.25;;;0.73;;
71734;SDS011;59577;52.122;5.406;2023-08-12T10:29:51;1.85;;;0.47;;
71734;SDS011;59577;52.122;5.406;2023-08-12T10:32:24;2.75;;;1.00;;
71734;SDS011;59577;52.122;5.406;2023-08-12T10:34:55;2.22;;;0.57;;
71734;SDS011;59577;52.122;5.406;2023-08-12T10:37:25;3.50;;;0.97;;
71734;SDS011;59577;52.122;5.406;2023-08-12T10:39:53;1.83;;;0.63;;
71734;SDS011;59577;52.122;5.406;2023-08-12T10:42:39;4.07;;;0.68;;
71734;SDS011;59577;52.122;5.406;2023-08-12T10:45:14;2.85;;;0.68;;
71734;SDS011;59577;52.122;5.406;2023-08-12T10:47:51;2.05;;;0.57;;
71734;SDS011;59577;52.122;5.406;2023-08-12T10:50:35;1.67;;;0.60;;
71734;SDS011;59577;52.122;5.406;2023-08-12T10:53:20;2.13;;;0.85;;
71734;SDS011;59577;52.122;5.406;2023-08-12T10:55:50;2.83;;;0.80;;
71734;SDS011;59577;52.122;5.406;2023-08-12T10:58:27;3.05;;;0.65;;
71734;SDS011;59577;52.122;5.406;2023-08-12T11:00:56;3.67;;;1.00;;
71734;SDS011;59577;52.122;5.406;2023-08-12T11:03:23;4.63;;;0.90;;
71734;SDS011;59577;52.122;5.406;2023-08-12T11:05:50;4.95;;;0.80;;
71734;SDS011;59577;52.122;5.406;2023-08-12T11:08:25;4.20;;;1.00;;
71734;SDS011;59577;52.122;5.406;2023-08-12T11:10:56;3.15;;;0.82;;
71734;SDS011;59577;52.122;5.406;2023-08-12T11:13:26;1.95;;;0.82;;
71734;SDS011;59577;52.122;5.406;2023-08-12T11:15:53;2.00;;;1.00;;
71734;SDS011;59577;52.122;5.406;2023-08-12T11:18:32;3.45;;;0.77;;
71734;SDS011;59577;52.122;5.406;2023-08-12T11:20:59;3.38;;;0.95;;
71734;SDS011;59577;52.122;5.406;2023-08-12T11:23:26;4.10;;;1.05;;
71734;SDS011;59577;52.122;5.406;2023-08-12T11:25:54;3.35;;;0.88;;
71734;SDS011;59577;52.122;5.406;2023-08-12T11:28:21;4.17;;;0.90;;
71734;SDS011;59577;52.122;5.406;2023-08-12T11:30:50;3.17;;;1.10;;
71734;SDS011;59577;52.122;5.406;2023-08-12T11:33:16;2.60;;;0.85;;
71734;SDS011;59577;52.122;5.406;2023-08-12T11:35:47;2.35;;;0.95;;
71734;SDS011;59577;52.122;5.406;2023-08-12T11:38:13;3.65;;;0.80;;
71734;SDS011;59577;52.122;5.406;2023-08-12T11:40:41;3.17;;;0.73;;
71734;SDS011;59577;52.122;5.406;2023-08-12T11:43:09;2.28;;;0.63;;
71734;SDS011;59577;52.122;5.406;2023-08-12T11:45:35;6.72;;;1.38;;
71734;SDS011;59577;52.122;5.406;2023-08-12T11:48:04;5.10;;;0.80;;
71734;SDS011;59577;52.122;5.406;2023-08-12T11:50:31;3.42;;;0.75;;
71734;SDS011;59577;52.122;5.406;2023-08-12T11:52:59;3.57;;;0.97;;
71734;SDS011;59577;52.122;5.406;2023-08-12T11:55:25;2.75;;;0.77;;
71734;SDS011;59577;52.122;5.406;2023-08-12T11:57:53;3.17;;;0.82;;
71734;SDS011;59577;52.122;5.406;2023-08-12T12:00:20;5.15;;;1.10;;
71734;SDS011;59577;52.122;5.406;2023-08-12T12:02:50;4.82;;;0.70;;
71734;SDS011;59577;52.122;5.406;2023-08-12T12:05:21;4.20;;;1.00;;
71734;SDS011;59577;52.122;5.406;2023-08-12T12:07:50;3.65;;;0.70;;
71734;SDS011;59577;52.122;5.406;2023-08-12T12:10:40;4.03;;;0.90;;
71734;SDS011;59577;52.122;5.406;2023-08-12T12:13:05;3.50;;;0.90;;
71734;SDS011;59577;52.122;5.406;2023-08-12T12:15:37;3.50;;;0.85;;
71734;SDS011;59577;52.122;5.406;2023-08-12T12:18:10;3.00;;;0.77;;
71734;SDS011;59577;52.122;5.406;2023-08-12T12:20:57;3.00;;;0.90;;
71734;SDS011;59577;52.122;5.406;2023-08-12T12:23:29;2.50;;;0.90;;
71734;SDS011;59577;52.122;5.406;2023-08-12T12:26:05;2.75;;;0.70;;
71734;SDS011;59577;52.122;5.406;2023-08-12T12:28:32;3.85;;;0.85;;
71734;SDS011;59577;52.122;5.406;2023-08-12T12:30:59;4.27;;;0.83;;
71734;SDS011;59577;52.122;5.406;2023-08-12T12:33:25;3.03;;;0.80;;
71734;SDS011;59577;52.122;5.406;2023-08-12T12:35:53;2.33;;;0.80;;
71734;SDS011;59577;52.122;5.406;2023-08-12T12:38:26;4.25;;;0.70;;
71734;SDS011;59577;52.122;5.406;2023-08-12T12:40:53;4.97;;;0.95;;
71734;SDS011;59577;52.122;5.406;2023-08-12T12:43:20;2.20;;;0.67;;
71734;SDS011;59577;52.122;5.406;2023-08-12T12:45:47;3.80;;;0.88;;
71734;SDS011;59577;52.122;5.406;2023-08-12T12:48:13;2.13;;;1.00;;
71734;SDS011;59577;52.122;5.406;2023-08-12T12:50:40;3.47;;;0.82;;
71734;SDS011;59577;52.122;5.406;2023-08-12T12:53:06;4.10;;;0.75;;
71734;SDS011;59577;52.122;5.406;2023-08-12T12:55:33;3.33;;;0.80;;
71734;SDS011;59577;52.122;5.406;2023-08-12T12:57:59;3.00;;;1.10;;
71734;SDS011;59577;52.122;5.406;2023-08-12T13:00:26;5.50;;;1.17;;
71734;SDS011;59577;52.122;5.406;2023-08-12T13:02:52;3.67;;;1.08;;
71734;SDS011;59577;52.122;5.406;2023-08-12T13:05:31;3.60;;;1.40;;
71734;SDS011;59577;52.122;5.406;2023-08-12T13:07:58;4.47;;;1.03;;
71734;SDS011;59577;52.122;5.406;2023-08-12T13:10:24;3.58;;;0.93;;
71734;SDS011;59577;52.122;5.406;2023-08-12T13:12:51;5.75;;;1.00;;
71734;SDS011;59577;52.122;5.406;2023-08-12T13:15:18;3.70;;;0.98;;
71734;SDS011;59577;52.122;5.406;2023-08-12T13:17:44;3.70;;;0.93;;
71734;SDS011;59577;52.122;5.406;2023-08-12T13:20:11;2.97;;;0.73;;
71734;SDS011;59577;52.122;5.406;2023-08-12T13:22:38;5.85;;;1.00;;
71734;SDS011;59577;52.122;5.406;2023-08-12T13:25:04;4.40;;;1.63;;
71734;SDS011;59577;52.122;5.406;2023-08-12T13:27:32;4.00;;;0.80;;
71734;SDS011;59577;52.122;5.406;2023-08-12T13:29:59;4.88;;;1.02;;
71734;SDS011;59577;52.122;5.406;2023-08-12T13:32:27;2.60;;;0.97;;
71734;SDS011;59577;52.122;5.406;2023-08-12T13:34:53;6.15;;;0.82;;
71734;SDS011;59577;52.122;5.406;2023-08-12T13:37:20;4.15;;;0.82;;
71734;SDS011;59577;52.122;5.406;2023-08-12T13:39:46;4.13;;;0.98;;
71734;SDS011;59577;52.122;5.406;2023-08-12T13:42:13;2.97;;;0.80;;
71734;SDS011;59577;52.122;5.406;2023-08-12T13:44:40;4.93;;;1.00;;
71734;SDS011;59577;52.122;5.406;2023-08-12T13:47:15;5.60;;;1.45;;
71734;SDS011;59577;52.122;5.406;2023-08-12T13:49:41;4.03;;;0.85;;
71734;SDS011;59577;52.122;5.406;2023-08-12T13:52:08;6.25;;;1.15;;
71734;SDS011;59577;52.122;5.406;2023-08-12T13:54:35;3.80;;;1.33;;
71734;SDS011;59577;52.122;5.406;2023-08-12T13:57:02;4.67;;;0.80;;
71734;SDS011;59577;52.122;5.406;2023-08-12T13:59:30;5.40;;;1.05;;
71734;SDS011;59577;52.122;5.406;2023-08-12T14:01:57;3.95;;;0.70;;
71734;SDS011;59577;52.122;5.406;2023-08-12T14:04:24;3.17;;;0.90;;
71734;SDS011;59577;52.122;5.406;2023-08-12T14:06:50;5.85;;;1.25;;
71734;SDS011;59577;52.122;5.406;2023-08-12T14:09:18;6.23;;;0.97;;
71734;SDS011;59577;52.122;5.406;2023-08-12T14:11:46;5.40;;;1.08;;
71734;SDS011;59577;52.122;5.406;2023-08-12T14:14:15;5.85;;;1.00;;
71734;SDS011;59577;52.122;5.406;2023-08-12T14:16:42;1.42;;;0.55;;
71734;SDS011;59577;52.122;5.406;2023-08-12T14:19:09;5.50;;;1.10;;
71734;SDS011;59577;52.122;5.406;2023-08-12T14:21:35;4.33;;;1.20;;
71734;SDS011;59577;52.122;5.406;2023-08-12T14:24:02;5.07;;;0.98;;
71734;SDS011;59577;52.122;5.406;2023-08-12T14:26:29;5.57;;;0.75;;
71734;SDS011;59577;52.122;5.406;2023-08-12T14:28:55;6.25;;;0.80;;
71734;SDS011;59577;52.122;5.406;2023-08-12T14:31:22;5.28;;;0.90;;
71734;SDS011;59577;52.122;5.406;2023-08-12T14:33:49;6.80;;;0.90;;
71734;SDS011;59577;52.122;5.406;2023-08-12T14:36:15;3.97;;;0.98;;
71734;SDS011;59577;52.122;5.406;2023-08-12T14:38:42;4.07;;;0.90;;
71734;SDS011;59577;52.122;5.406;2023-08-12T14:41:08;4.82;;;1.25;;
71734;SDS011;59577;52.122;5.406;2023-08-12T14:43:34;5.68;;;1.42;;
71734;SDS011;59577;52.122;5.406;2023-08-12T14:46:03;4.63;;;0.87;;
71734;SDS011;59577;52.122;5.406;2023-08-12T14:48:31;6.70;;;0.80;;
71734;SDS011;59577;52.122;5.406;2023-08-12T14:50:57;3.17;;;0.77;;
71734;SDS011;59577;52.122;5.406;2023-08-12T14:53:24;5.43;;;1.23;;